Rochester, Massachusetts
Current Conditions -  °F | °C
As of 11:53 AM on Thursday 23 Oct 2014 (Local Time) from KEWB Reporting Station
Light Rain Light Rain  
Wind Chill: 56°   Ceiling: 700
Heat Index: 56°   Visibility: 10mi
Dew Point: 53°   Wind: 9mph
Humidity: 90%   Direction: 350°N
Pressure: 29.56"   Gusts: 17mph
Location:  41.73°N, 70.82°W
Report Text: KEWB 231553Z 35008G15KT 310V020 10SM -RA OVC007 13/12 A2956 RMK AO2 RAB43 SLP010 P0000 T01330117
Loading
Personal Weather Stations






























Interactive Weather Map
Tropical Storm Tracking
New forecast layout! Learn more

10-Day Weather Forecast

Advertisements
Track Severe Weather on mobile